createdAt,value
2018-04-17T08:22:46.038Z,1366.88
2018-04-17T08:23:46.012Z,1411.88
2018-04-17T08:24:45.986Z,1406.25
2018-04-17T08:25:45.961Z,1361.25
2018-04-17T08:26:45.935Z,1321.88
2018-04-17T08:27:45.908Z,1395.00
2018-04-17T08:28:45.884Z,1389.38
2018-04-17T08:29:45.857Z,1417.50
2018-04-17T08:30:45.833Z,1473.75
2018-04-17T08:31:45.816Z,1445.63
2018-04-17T08:32:45.780Z,1389.38
2018-04-17T08:33:45.755Z,1406.25
2018-04-17T08:34:45.732Z,1378.13
2018-04-17T08:35:45.713Z,1366.88
2018-04-17T08:36:45.688Z,1220.63
2018-04-17T08:37:45.653Z,1147.50
2018-04-17T08:38:45.629Z,1046.25
2018-04-17T08:39:45.603Z,1018.13
2018-04-17T08:40:45.583Z,1158.75
2018-04-17T08:41:45.597Z,1299.38
2018-04-17T08:42:45.588Z,1310.63
2018-04-17T08:43:45.514Z,1288.13
2018-04-17T08:44:45.480Z,1383.75
2018-04-17T08:45:45.454Z,1462.50
2018-04-17T08:46:45.430Z,1175.63
2018-04-17T08:47:45.409Z,1012.50
2018-04-17T08:48:45.381Z,1006.88
2018-04-17T08:49:45.356Z,1006.88
2018-04-17T08:50:45.331Z,1001.25
2018-04-17T08:51:45.307Z,945.00
2018-04-17T08:52:45.283Z,928.13
2018-04-17T08:53:45.258Z,933.75
2018-04-17T08:54:45.234Z,956.25
2018-04-17T08:55:45.211Z,973.13
2018-04-17T08:56:45.186Z,984.38
2018-04-17T08:57:45.165Z,984.38
2018-04-17T08:58:45.143Z,995.63
2018-04-17T08:59:45.115Z,1035.00
2018-04-17T09:00:45.133Z,1063.13
2018-04-17T09:01:45.070Z,1068.75
2018-04-17T09:02:45.045Z,1108.13
2018-04-17T09:03:45.020Z,1113.75
2018-04-17T09:04:44.996Z,1113.75
2018-04-17T09:05:44.980Z,1096.88
2018-04-17T09:06:44.951Z,1147.50
2018-04-17T09:07:44.927Z,1158.75
2018-04-17T09:08:44.904Z,1164.38
2018-04-17T09:09:44.882Z,1186.88
2018-04-17T09:10:44.859Z,1141.88
2018-04-17T09:11:44.893Z,1068.75
2018-04-17T09:12:44.812Z,1051.88
2018-04-17T09:13:44.789Z,1057.50
2018-04-17T09:14:44.771Z,1051.88
2018-04-17T09:15:44.744Z,1051.88
2018-04-17T09:16:44.718Z,1051.88
2018-04-17T09:17:44.695Z,1040.63
2018-04-17T09:18:44.673Z,1029.38
2018-04-17T09:19:44.648Z,1023.75
2018-04-17T09:20:44.625Z,1012.50
2018-04-17T09:21:44.602Z,995.63
2018-04-17T09:22:44.578Z,984.38
2018-04-17T09:23:44.554Z,984.38
2018-04-17T09:24:44.532Z,978.75
2018-04-17T09:25:44.506Z,984.38
2018-04-17T09:26:44.482Z,978.75
2018-04-17T09:27:44.461Z,978.75
2018-04-17T09:28:44.432Z,978.75
2018-04-17T09:29:44.410Z,956.25
2018-04-17T09:30:44.385Z,961.88
2018-04-17T09:31:44.360Z,967.50
2018-04-17T09:32:44.347Z,950.63
2018-04-17T09:33:44.312Z,945.00
2018-04-17T09:34:44.287Z,933.75
2018-04-17T09:35:44.262Z,928.13
2018-04-17T09:36:44.238Z,911.25
2018-04-17T09:37:44.213Z,888.75
2018-04-17T09:38:44.188Z,871.88
2018-04-17T09:39:44.162Z,871.88
2018-04-17T09:40:44.137Z,849.38
2018-04-17T09:41:44.112Z,832.50
2018-04-17T09:42:44.087Z,804.38
2018-04-17T09:43:44.061Z,624.38
2018-04-17T09:44:44.035Z,421.88
2018-04-17T09:45:44.010Z,388.13
2018-04-17T09:46:43.982Z,388.13
2018-04-17T09:47:43.960Z,388.13
2018-04-17T09:48:43.929Z,388.13
2018-04-17T09:49:43.902Z,382.50
2018-04-17T09:50:43.874Z,382.50
2018-04-17T09:51:43.846Z,382.50
2018-04-17T09:52:43.823Z,382.50
2018-04-17T09:53:43.787Z,376.88
2018-04-17T09:54:43.757Z,376.88
2018-04-17T09:55:43.726Z,376.88
2018-04-17T09:56:43.697Z,376.88
2018-04-17T09:57:43.666Z,371.25
2018-04-17T09:58:43.634Z,376.88
2018-04-17T09:59:43.600Z,365.63
2018-04-17T10:00:43.570Z,365.63
2018-04-17T10:01:43.538Z,365.63
2018-04-17T10:02:43.506Z,365.63
2018-04-17T10:03:43.473Z,360.00
2018-04-17T10:04:43.439Z,360.00
2018-04-17T10:05:43.407Z,360.00
2018-04-17T10:06:43.374Z,360.00
2018-04-17T10:07:43.346Z,360.00
2018-04-17T10:08:43.318Z,360.00
2018-04-17T10:09:43.272Z,360.00
2018-04-17T10:10:43.240Z,354.38
2018-04-17T10:11:43.205Z,354.38
2018-04-17T10:12:43.171Z,360.00
2018-04-17T10:13:43.136Z,354.38
2018-04-17T10:14:43.104Z,360.00
2018-04-17T10:15:43.067Z,315.00
2018-04-17T10:16:43.034Z,354.38
2018-04-17T10:17:42.999Z,354.38
2018-04-17T10:18:42.968Z,354.38
2018-04-17T10:19:42.930Z,354.38
2018-04-17T10:20:42.895Z,354.38
2018-04-17T10:21:42.863Z,354.38
2018-04-17T10:22:42.825Z,354.38
2018-04-17T10:23:42.789Z,348.75
2018-04-17T10:24:42.754Z,337.50
2018-04-17T10:25:42.719Z,343.13
2018-04-17T10:26:42.684Z,337.50
2018-04-17T10:27:42.647Z,343.13
2018-04-17T10:28:42.611Z,343.13
2018-04-17T10:29:42.578Z,348.75
2018-04-17T10:30:42.541Z,230.63
2018-04-17T10:31:42.505Z,315.00
2018-04-17T10:32:42.472Z,264.38
2018-04-17T10:33:42.433Z,247.50
2018-04-17T10:34:42.397Z,230.63
2018-04-17T10:35:42.361Z,298.13
2018-04-17T10:36:42.328Z,326.25
2018-04-17T10:37:42.289Z,326.25
2018-04-17T10:38:42.253Z,326.25
2018-04-17T10:39:42.240Z,320.63
2018-04-17T10:40:42.180Z,320.63
2018-04-17T10:41:42.144Z,320.63
2018-04-17T10:42:42.116Z,315.00
2018-04-17T10:43:42.070Z,315.00
2018-04-17T10:44:42.034Z,320.63
2018-04-17T10:45:41.997Z,315.00
2018-04-17T10:46:41.961Z,320.63
2018-04-17T10:47:41.923Z,326.25
2018-04-17T10:48:41.887Z,331.88
2018-04-17T10:49:41.850Z,253.13
2018-04-17T10:50:41.814Z,320.63
2018-04-17T10:51:41.777Z,315.00
2018-04-17T10:52:41.741Z,315.00
2018-04-17T10:53:41.703Z,315.00
2018-04-17T10:54:41.666Z,309.38
2018-04-17T10:55:41.628Z,298.13
2018-04-17T10:56:41.591Z,292.50
2018-04-17T10:57:41.554Z,292.50
2018-04-17T10:58:41.520Z,292.50
2018-04-17T10:59:41.500Z,292.50
2018-04-17T11:00:41.445Z,298.13
2018-04-17T11:01:41.406Z,292.50
2018-04-17T11:02:41.369Z,292.50
2018-04-17T11:03:41.331Z,292.50
2018-04-17T11:04:41.294Z,286.88
2018-04-17T11:05:41.256Z,286.88
2018-04-17T11:06:41.219Z,286.88
2018-04-17T11:07:41.183Z,281.25
2018-04-17T11:08:41.147Z,292.50
2018-04-17T11:09:41.111Z,298.13
2018-04-17T11:10:41.073Z,303.75
2018-04-17T11:11:41.036Z,303.75
2018-04-17T11:12:40.997Z,303.75
2018-04-17T11:13:40.958Z,292.50
2018-04-17T11:14:40.920Z,298.13
2018-04-17T11:15:40.883Z,298.13
2018-04-17T11:16:40.846Z,292.50
2018-04-17T11:17:40.807Z,180.00
2018-04-17T11:18:40.770Z,253.13
2018-04-17T11:19:40.735Z,286.88
2018-04-17T11:20:40.696Z,292.50
2018-04-17T11:21:40.661Z,286.88
2018-04-17T11:22:40.621Z,281.25
2018-04-17T11:23:40.584Z,275.63
2018-04-17T11:24:40.545Z,270.00
2018-04-17T11:25:40.508Z,264.38
2018-04-17T11:26:40.470Z,264.38
2018-04-17T11:27:40.432Z,270.00
2018-04-17T11:28:40.394Z,208.13
2018-04-17T11:29:40.356Z,258.75
2018-04-17T11:30:40.318Z,253.13
2018-04-17T11:31:40.279Z,253.13
2018-04-17T11:32:40.241Z,258.75
2018-04-17T11:33:40.206Z,258.75
2018-04-17T11:34:40.206Z,264.38
2018-04-17T11:35:40.127Z,275.63
2018-04-17T11:36:40.089Z,270.00
2018-04-17T11:37:40.051Z,275.63
2018-04-17T11:38:40.013Z,270.00
2018-04-17T11:39:39.974Z,264.38
2018-04-17T11:40:39.936Z,258.75
2018-04-17T11:41:39.898Z,258.75
2018-04-17T11:42:39.860Z,258.75
2018-04-17T11:43:39.822Z,258.75
2018-04-17T11:44:39.783Z,258.75
2018-04-17T11:45:39.747Z,202.50
2018-04-17T11:46:39.706Z,163.13
2018-04-17T11:47:39.668Z,151.88
2018-04-17T11:48:39.664Z,236.25
2018-04-17T11:49:39.591Z,230.63
2018-04-17T11:50:39.559Z,264.38
2018-04-17T11:51:39.516Z,180.00
2018-04-17T11:52:39.476Z,180.00
2018-04-17T11:53:39.438Z,258.75
2018-04-17T11:54:39.400Z,270.00
2018-04-17T11:55:39.359Z,275.63
2018-04-17T11:56:39.320Z,270.00
2018-04-17T11:57:39.282Z,196.88
2018-04-17T11:58:39.245Z,275.63
2018-04-17T11:59:39.206Z,208.13
2018-04-17T12:00:39.169Z,286.88
2018-04-17T12:01:39.128Z,298.13
2018-04-17T12:02:39.090Z,298.13
2018-04-17T12:03:39.051Z,292.50
2018-04-17T12:04:39.014Z,292.50
2018-04-17T12:05:38.977Z,298.13
2018-04-17T12:06:38.936Z,309.38
2018-04-17T12:07:38.895Z,303.75
2018-04-17T12:08:38.859Z,303.75
2018-04-17T12:09:38.821Z,303.75
2018-04-17T12:10:38.782Z,303.75
2018-04-17T12:11:38.743Z,298.13
2018-04-17T12:12:38.705Z,309.38
2018-04-17T12:13:38.667Z,298.13
2018-04-17T12:14:38.635Z,298.13
2018-04-17T12:15:38.590Z,281.25
2018-04-17T12:16:38.552Z,281.25
2018-04-17T12:17:38.514Z,247.50
2018-04-17T12:18:38.476Z,185.63
2018-04-17T12:19:38.437Z,174.38
2018-04-17T12:20:38.399Z,253.13
2018-04-17T12:21:38.361Z,253.13
2018-04-17T12:22:38.324Z,258.75
2018-04-17T12:23:38.284Z,270.00
2018-04-17T12:24:38.246Z,202.50
2018-04-17T12:25:38.208Z,281.25
2018-04-17T12:26:38.175Z,281.25
2018-04-17T12:27:38.133Z,286.88
2018-04-17T12:28:38.092Z,286.88
2018-04-17T12:29:38.055Z,298.13
2018-04-17T12:30:38.017Z,292.50
2018-04-17T12:31:37.977Z,292.50
2018-04-17T12:32:37.939Z,281.25
2018-04-17T12:33:37.901Z,258.75
2018-04-17T12:34:37.905Z,241.88
2018-04-17T12:35:37.824Z,286.88
2018-04-17T12:36:37.785Z,275.63
2018-04-17T12:37:37.747Z,191.25
2018-04-17T12:38:37.709Z,168.75
2018-04-17T12:39:37.669Z,157.50
2018-04-17T12:40:37.631Z,146.25
2018-04-17T12:41:37.593Z,140.63
2018-04-17T12:42:37.553Z,140.63
2018-04-17T12:43:37.514Z,157.50
2018-04-17T12:44:37.476Z,135.00
2018-04-17T12:45:37.437Z,129.38
2018-04-17T12:46:37.398Z,129.38
2018-04-17T12:47:37.358Z,123.75
2018-04-17T12:48:37.321Z,129.38
2018-04-17T12:49:37.380Z,135.00
2018-04-17T12:50:37.242Z,174.38
2018-04-17T12:51:37.202Z,168.75
2018-04-17T12:52:37.163Z,129.38
2018-04-17T12:53:37.123Z,135.00
2018-04-17T12:54:37.086Z,163.13
2018-04-17T12:55:37.048Z,202.50
2018-04-17T12:56:37.004Z,202.50
2018-04-17T12:57:36.966Z,202.50
2018-04-17T12:58:36.926Z,202.50
2018-04-17T12:59:36.886Z,180.00
2018-04-17T13:00:36.850Z,135.00
2018-04-17T13:01:36.810Z,135.00
2018-04-17T13:02:36.767Z,135.00
2018-04-17T13:03:36.727Z,129.38
2018-04-17T13:04:36.688Z,129.38
2018-04-17T13:05:36.648Z,123.75
2018-04-17T13:06:36.609Z,118.13
2018-04-17T13:07:36.568Z,118.13
2018-04-17T13:08:36.528Z,123.75
2018-04-17T13:09:36.489Z,123.75
2018-04-17T13:10:36.449Z,140.63
2018-04-17T13:11:36.408Z,129.38
2018-04-17T13:12:36.368Z,140.63
2018-04-17T13:13:36.328Z,213.75
2018-04-17T13:14:36.287Z,219.38
2018-04-17T13:15:36.248Z,225.00
2018-04-17T13:16:36.208Z,213.75
2018-04-17T13:17:36.175Z,225.00
2018-04-17T13:18:36.129Z,163.13
2018-04-17T13:19:36.089Z,151.88
2018-04-17T13:20:36.053Z,174.38
2018-04-17T13:21:36.015Z,135.00
2018-04-17T13:22:35.971Z,129.38
2018-04-17T13:23:35.929Z,123.75
2018-04-17T13:24:35.896Z,123.75
2018-04-17T13:25:35.850Z,123.75
2018-04-17T13:26:35.810Z,123.75
2018-04-17T13:27:35.769Z,118.13
2018-04-17T13:28:35.730Z,118.13
2018-04-17T13:29:35.691Z,118.13
2018-04-17T13:30:35.650Z,123.75
2018-04-17T13:31:35.609Z,123.75
2018-04-17T13:32:35.569Z,123.75
2018-04-17T13:33:35.530Z,123.75
2018-04-17T13:34:35.488Z,123.75
2018-04-17T13:35:35.448Z,151.88
2018-04-17T13:36:35.421Z,135.00
2018-04-17T13:37:35.369Z,163.13
2018-04-17T13:38:35.331Z,146.25
2018-04-17T13:39:35.289Z,129.38
2018-04-17T13:40:35.248Z,129.38
2018-04-17T13:41:35.209Z,129.38
2018-04-17T13:42:35.169Z,151.88
2018-04-17T13:43:35.129Z,129.38
2018-04-17T13:44:35.089Z,123.75
2018-04-17T13:45:35.049Z,123.75
2018-04-17T13:46:35.009Z,163.13
2018-04-17T13:47:34.967Z,129.38
2018-04-17T13:48:34.928Z,129.38
2018-04-17T13:49:34.890Z,135.00
2018-04-17T13:50:34.850Z,140.63
2018-04-17T13:51:34.807Z,174.38
2018-04-17T13:52:34.767Z,174.38
2018-04-17T13:53:34.726Z,135.00
2018-04-17T13:54:34.688Z,123.75
2018-04-17T13:55:34.645Z,118.13
2018-04-17T13:56:34.606Z,112.50
2018-04-17T13:57:34.566Z,112.50
2018-04-17T13:58:34.527Z,118.13
2018-04-17T13:59:34.485Z,163.13
2018-04-17T14:00:34.445Z,118.13
2018-04-17T14:01:34.405Z,118.13
2018-04-17T14:02:34.366Z,140.63
2018-04-17T14:03:34.324Z,118.13
2018-04-17T14:04:34.284Z,129.38
2018-04-17T14:05:34.244Z,163.13
2018-04-17T14:06:34.204Z,168.75
2018-04-17T14:07:34.163Z,168.75
2018-04-17T14:08:34.123Z,168.75
2018-04-17T14:09:34.083Z,163.13
2018-04-17T14:10:34.043Z,163.13
2018-04-17T14:11:34.002Z,157.50
2018-04-17T14:12:33.962Z,146.25
2018-04-17T14:13:33.922Z,157.50
2018-04-17T14:14:33.882Z,157.50
2018-04-17T14:15:33.841Z,168.75
2018-04-17T14:16:33.805Z,163.13
2018-04-17T14:17:33.761Z,157.50
2018-04-17T14:18:33.721Z,163.13
2018-04-17T14:19:33.680Z,163.13
2018-04-17T14:20:33.641Z,163.13
2018-04-17T14:21:33.601Z,163.13
2018-04-17T14:22:33.561Z,163.13
2018-04-17T14:23:33.520Z,163.13
2018-04-17T14:24:33.480Z,168.75
2018-04-17T14:25:33.452Z,168.75
2018-04-17T14:26:33.400Z,135.00
2018-04-17T14:27:33.360Z,174.38
2018-04-17T14:28:33.321Z,174.38
2018-04-17T14:29:33.279Z,174.38
2018-04-17T14:30:33.241Z,174.38
2018-04-17T14:31:33.200Z,168.75
2018-04-17T14:32:33.160Z,168.75
2018-04-17T14:33:33.126Z,168.75
2018-04-17T14:34:33.081Z,163.13
2018-04-17T14:35:33.040Z,129.38
2018-04-17T14:36:33.002Z,123.75
2018-04-17T14:37:32.961Z,123.75
2018-04-17T14:38:32.921Z,151.88
2018-04-17T14:39:32.880Z,118.13
2018-04-17T14:40:32.844Z,118.13
2018-04-17T14:41:32.801Z,146.25
2018-04-17T14:42:32.762Z,135.00
2018-04-17T14:43:32.720Z,118.13
2018-04-17T14:44:32.680Z,135.00
2018-04-17T14:45:32.645Z,118.13
2018-04-17T14:46:32.602Z,118.13
2018-04-17T14:47:32.562Z,135.00
2018-04-17T14:48:32.520Z,118.13
2018-04-17T14:49:32.489Z,146.25
2018-04-17T14:50:32.442Z,151.88
2018-04-17T14:51:32.400Z,157.50
2018-04-17T14:52:32.361Z,151.88
2018-04-17T14:53:32.321Z,118.13
2018-04-17T14:54:32.280Z,151.88
2018-04-17T14:55:32.240Z,123.75
2018-04-17T14:56:32.200Z,123.75
2018-04-17T14:57:32.160Z,123.75
2018-04-17T14:58:32.120Z,151.88
2018-04-17T14:59:32.080Z,146.25
2018-04-17T15:00:32.041Z,151.88
2018-04-17T15:01:31.999Z,157.50
2018-04-17T15:02:31.960Z,163.13
2018-04-17T15:03:31.922Z,168.75
2018-04-17T15:04:31.879Z,146.25
2018-04-17T15:05:31.839Z,151.88
2018-04-17T15:06:31.799Z,168.75
2018-04-17T15:07:31.759Z,157.50
2018-04-17T15:08:31.718Z,157.50
2018-04-17T15:09:31.678Z,163.13
2018-04-17T15:10:31.638Z,163.13
2018-04-17T15:11:31.598Z,163.13
2018-04-17T15:12:31.561Z,163.13
2018-04-17T15:13:31.518Z,151.88
2018-04-17T15:14:31.479Z,146.25
2018-04-17T15:15:31.437Z,140.63
2018-04-17T15:16:31.397Z,140.63
2018-04-17T15:17:31.357Z,135.00
2018-04-17T15:18:31.320Z,135.00
2018-04-17T15:19:31.277Z,129.38
2018-04-17T15:20:31.241Z,101.25
2018-04-17T15:21:31.196Z,101.25
2018-04-17T15:22:31.157Z,101.25
2018-04-17T15:23:31.115Z,112.50
2018-04-17T15:24:31.075Z,101.25
2018-04-17T15:25:31.037Z,101.25
2018-04-17T15:26:30.996Z,101.25
2018-04-17T15:27:30.955Z,112.50
2018-04-17T15:28:30.915Z,95.63
2018-04-17T15:29:30.875Z,90.00
2018-04-17T15:30:30.834Z,90.00
2018-04-17T15:31:30.795Z,84.38
2018-04-17T15:32:30.753Z,84.38
2018-04-17T15:33:30.714Z,90.00
2018-04-17T15:34:30.673Z,90.00
2018-04-17T15:35:30.632Z,90.00
2018-04-17T15:36:30.592Z,95.63
2018-04-17T15:37:30.552Z,106.88
2018-04-17T15:38:30.511Z,90.00
2018-04-17T15:39:30.471Z,90.00
2018-04-17T15:40:30.430Z,90.00
2018-04-17T15:41:30.390Z,90.00
2018-04-17T15:42:30.351Z,101.25
2018-04-17T15:43:30.309Z,112.50
2018-04-17T15:44:30.270Z,112.50
2018-04-17T15:45:30.229Z,101.25
2018-04-17T15:46:30.187Z,95.63
2018-04-17T15:47:30.147Z,106.88
2018-04-17T15:48:30.105Z,90.00
2018-04-17T15:49:30.065Z,90.00
2018-04-17T15:50:30.025Z,90.00
2018-04-17T15:51:29.985Z,90.00
2018-04-17T15:52:29.943Z,101.25
2018-04-17T15:53:29.903Z,90.00
2018-04-17T15:54:29.861Z,90.00
2018-04-17T15:55:29.820Z,90.00
2018-04-17T15:56:29.780Z,101.25
2018-04-17T15:57:29.739Z,106.88
2018-04-17T15:58:29.698Z,106.88
2018-04-17T15:59:29.656Z,106.88
2018-04-17T16:00:29.616Z,106.88
2018-04-17T16:01:29.575Z,106.88
2018-04-17T16:02:29.535Z,106.88
2018-04-17T16:03:29.540Z,101.25
2018-04-17T16:04:29.452Z,101.25
2018-04-17T16:05:29.412Z,101.25
2018-04-17T16:06:29.371Z,101.25
2018-04-17T16:07:29.332Z,101.25
2018-04-17T16:08:29.289Z,101.25
2018-04-17T16:09:29.294Z,101.25
2018-04-17T16:10:29.207Z,101.25
2018-04-17T16:11:29.166Z,101.25
2018-04-17T16:12:29.125Z,101.25
2018-04-17T16:13:29.084Z,101.25
2018-04-17T16:14:29.043Z,101.25
2018-04-17T16:15:29.001Z,101.25
2018-04-17T16:16:28.961Z,95.63
2018-04-17T16:17:28.920Z,95.63
2018-04-17T16:18:28.879Z,95.63
2018-04-17T16:19:28.837Z,95.63
2018-04-17T16:20:28.800Z,95.63
2018-04-17T16:21:28.768Z,95.63
2018-04-17T16:22:28.728Z,95.63
2018-04-17T16:23:28.673Z,95.63
2018-04-17T16:24:28.632Z,95.63
2018-04-17T16:25:28.591Z,95.63
2018-04-17T16:26:28.551Z,90.00
2018-04-17T16:27:28.559Z,90.00
2018-04-17T16:28:28.468Z,90.00
2018-04-17T16:29:28.428Z,84.38
2018-04-17T16:30:28.389Z,84.38
2018-04-17T16:31:28.344Z,84.38
2018-04-17T16:32:28.304Z,78.75
2018-04-17T16:33:28.263Z,78.75
2018-04-17T16:34:28.222Z,78.75
2018-04-17T16:35:28.180Z,78.75
2018-04-17T16:36:28.139Z,67.50
2018-04-17T16:37:28.098Z,73.13
2018-04-17T16:38:28.057Z,67.50
2018-04-17T16:39:28.022Z,67.50
2018-04-17T16:40:27.975Z,67.50
2018-04-17T16:41:27.934Z,73.13
2018-04-17T16:42:27.896Z,73.13
2018-04-17T16:43:27.854Z,73.13
2018-04-17T16:44:27.809Z,73.13
2018-04-17T16:45:27.768Z,67.50
2018-04-17T16:46:27.728Z,67.50
2018-04-17T16:47:27.692Z,61.88
2018-04-17T16:48:27.645Z,61.88
2018-04-17T16:49:27.604Z,61.88
2018-04-17T16:50:27.563Z,61.88
2018-04-17T16:51:27.564Z,61.88
2018-04-17T16:52:27.480Z,61.88
2018-04-17T16:53:27.444Z,61.88
2018-04-17T16:54:27.398Z,67.50
2018-04-17T16:55:27.355Z,61.88
2018-04-17T16:56:27.315Z,61.88
2018-04-17T16:57:27.323Z,61.88
2018-04-17T16:58:27.232Z,61.88
2018-04-17T16:59:27.291Z,61.88
2018-04-17T17:00:27.149Z,56.25
2018-04-17T17:01:27.112Z,56.25
2018-04-17T17:02:27.069Z,56.25
2018-04-17T17:03:27.025Z,56.25
2018-04-17T17:04:26.984Z,56.25
2018-04-17T17:05:26.957Z,50.63
2018-04-17T17:06:26.901Z,50.63
2018-04-17T17:07:26.865Z,50.63
2018-04-17T17:08:26.818Z,50.63
2018-04-17T17:09:26.777Z,45.00
2018-04-17T17:10:26.736Z,45.00
2018-04-17T17:11:26.694Z,45.00
2018-04-17T17:12:26.653Z,45.00
2018-04-17T17:13:26.611Z,39.38
2018-04-17T17:14:26.574Z,39.38
2018-04-17T17:15:26.528Z,39.38
2018-04-17T17:16:26.486Z,39.38
2018-04-17T17:17:26.452Z,39.38
2018-04-17T17:18:26.404Z,39.38
2018-04-17T17:19:26.362Z,39.38
2018-04-17T17:20:26.350Z,39.38
2018-04-17T17:21:26.280Z,39.38
2018-04-17T17:22:26.238Z,33.75
2018-04-17T17:23:26.196Z,33.75
2018-04-17T17:24:26.154Z,33.75
2018-04-17T17:25:26.113Z,33.75
2018-04-17T17:26:26.074Z,33.75
2018-04-17T17:27:26.031Z,33.75
2018-04-17T17:28:25.988Z,33.75
2018-04-17T17:29:25.947Z,33.75
2018-04-17T17:30:25.906Z,33.75
2018-04-17T17:31:25.863Z,28.13
2018-04-17T17:32:25.832Z,28.13
2018-04-17T17:33:25.781Z,28.13
2018-04-17T17:34:25.740Z,28.13
2018-04-17T17:35:25.697Z,28.13
2018-04-17T17:36:25.656Z,28.13
2018-04-17T17:37:25.614Z,28.13
2018-04-17T17:38:25.573Z,22.50
2018-04-17T17:39:25.594Z,22.50
2018-04-17T17:40:25.490Z,22.50
2018-04-17T17:41:25.447Z,22.50
2018-04-17T17:42:25.406Z,22.50
2018-04-17T17:43:25.364Z,22.50
2018-04-17T17:44:25.326Z,16.88
2018-04-17T17:45:25.280Z,16.88
2018-04-17T17:46:25.243Z,16.88
2018-04-17T17:47:25.196Z,16.88
2018-04-17T17:48:25.159Z,16.88
2018-04-17T17:49:25.116Z,16.88
2018-04-17T17:50:25.072Z,11.25
2018-04-17T17:51:25.030Z,11.25
2018-04-17T17:52:24.987Z,11.25
2018-04-17T17:53:24.948Z,11.25
2018-04-17T17:54:24.908Z,11.25
2018-04-17T17:55:24.862Z,11.25
2018-04-17T17:56:24.824Z,11.25
2018-04-17T17:57:24.783Z,5.63
2018-04-17T17:58:24.737Z,5.63
2018-04-17T17:59:24.695Z,5.63
2018-04-17T18:00:24.658Z,5.63
2018-04-17T18:01:24.612Z,5.63
2018-04-17T18:02:24.570Z,5.63
2018-04-17T18:03:24.527Z,5.63
2018-04-17T18:04:24.485Z,5.63
2018-04-17T18:05:24.444Z,5.63
2018-04-17T18:06:24.403Z,5.63
2018-04-17T18:07:24.394Z,0.00
2018-04-17T18:08:24.318Z,0.00
2018-04-17T18:09:24.276Z,0.00
2018-04-17T18:10:24.234Z,0.00
2018-04-17T18:11:24.192Z,0.00
2018-04-17T18:12:24.161Z,0.00
2018-04-17T18:13:24.108Z,0.00
2018-04-17T18:14:24.066Z,0.00
2018-04-17T18:15:24.023Z,0.00
2018-04-17T18:16:23.982Z,0.00
2018-04-17T18:17:23.940Z,0.00
2018-04-17T18:18:23.899Z,0.00
2018-04-17T18:19:23.856Z,0.00
2018-04-17T18:20:23.819Z,0.00
2018-04-17T18:21:23.774Z,0.00
2018-04-17T18:22:23.729Z,0.00
2018-04-17T18:23:23.686Z,0.00
2018-04-17T18:24:23.644Z,0.00
2018-04-17T18:25:23.602Z,0.00
2018-04-17T18:26:23.561Z,0.00
2018-04-17T18:27:23.517Z,0.00
2018-04-17T18:28:23.475Z,0.00
2018-04-17T18:29:23.434Z,0.00
2018-04-17T18:30:23.392Z,0.00
2018-04-17T18:31:23.349Z,0.00
2018-04-17T18:32:23.307Z,0.00
2018-04-17T18:33:23.265Z,0.00
2018-04-17T18:34:23.223Z,0.00
2018-04-17T18:35:23.180Z,0.00
2018-04-17T18:36:23.138Z,0.00
2018-04-17T18:37:23.096Z,0.00
2018-04-17T18:38:23.054Z,0.00
2018-04-17T18:39:23.011Z,0.00
2018-04-17T18:40:22.973Z,0.00
2018-04-17T18:41:22.927Z,0.00
2018-04-17T18:42:22.885Z,0.00
2018-04-17T18:43:22.841Z,0.00
2018-04-17T18:44:22.800Z,0.00
2018-04-17T18:45:22.758Z,0.00
2018-04-17T18:46:22.716Z,0.00
2018-04-17T18:47:22.673Z,0.00
2018-04-17T18:48:22.631Z,0.00
2018-04-17T18:49:22.590Z,0.00
2018-04-17T18:50:22.547Z,0.00
2018-04-17T18:51:22.503Z,0.00
2018-04-17T18:52:22.461Z,0.00
2018-04-17T18:53:22.419Z,0.00
2018-04-17T18:54:22.377Z,0.00
2018-04-17T18:55:22.333Z,0.00
2018-04-17T18:56:22.291Z,0.00
2018-04-17T18:57:22.250Z,0.00
2018-04-17T18:58:22.207Z,0.00
2018-04-17T18:59:22.164Z,0.00
2018-04-17T19:00:22.122Z,0.00
2018-04-17T19:01:22.079Z,0.00
2018-04-17T19:02:22.037Z,0.00
2018-04-17T19:03:21.994Z,0.00
2018-04-17T19:04:21.953Z,0.00
2018-04-17T19:05:21.912Z,0.00
2018-04-17T19:06:21.870Z,0.00
2018-04-17T19:07:21.824Z,0.00
2018-04-17T19:08:21.782Z,0.00
2018-04-17T19:09:21.739Z,0.00
2018-04-17T19:10:21.701Z,0.00
2018-04-17T19:11:21.653Z,0.00
2018-04-17T19:12:21.621Z,0.00
2018-04-17T19:13:21.569Z,0.00
2018-04-17T19:14:21.531Z,0.00
2018-04-17T19:15:21.484Z,0.00
2018-04-17T19:16:21.441Z,0.00
2018-04-17T19:17:21.399Z,0.00
2018-04-17T19:18:21.357Z,0.00
2018-04-17T19:19:21.313Z,0.00
2018-04-17T19:20:21.271Z,0.00
2018-04-17T19:21:21.295Z,0.00
2018-04-17T19:22:21.192Z,0.00
2018-04-17T19:23:21.143Z,0.00
2018-04-17T19:24:21.100Z,0.00
2018-04-17T19:25:21.058Z,0.00
2018-04-17T19:26:21.016Z,0.00
2018-04-17T19:27:20.976Z,0.00
2018-04-17T19:28:20.932Z,0.00
2018-04-17T19:29:20.888Z,0.00
2018-04-17T19:30:20.845Z,0.00
2018-04-17T19:31:20.807Z,0.00
2018-04-17T19:32:20.760Z,0.00
2018-04-17T19:33:20.717Z,0.00
2018-04-17T19:34:20.675Z,0.00
2018-04-17T19:35:20.636Z,0.00
2018-04-17T19:36:20.590Z,0.00
2018-04-17T19:37:20.547Z,0.00
2018-04-17T19:38:20.504Z,0.00
2018-04-17T19:39:20.461Z,0.00
2018-04-17T19:40:20.475Z,0.00
2018-04-17T19:41:20.386Z,0.00
2018-04-17T19:42:20.333Z,0.00
2018-04-17T19:43:20.290Z,0.00
2018-04-17T19:44:20.247Z,0.00
2018-04-17T19:45:20.206Z,0.00
2018-04-17T19:46:20.165Z,0.00
2018-04-17T19:47:20.120Z,0.00
2018-04-17T19:48:20.084Z,0.00
2018-04-17T19:49:20.035Z,0.00
2018-04-17T19:50:19.992Z,0.00
2018-04-17T19:51:19.956Z,0.00
2018-04-17T19:52:19.905Z,0.00
2018-04-17T19:53:19.863Z,0.00
2018-04-17T19:54:19.821Z,0.00
2018-04-17T19:55:19.777Z,0.00
2018-04-17T19:56:19.736Z,0.00
2018-04-17T19:57:19.698Z,0.00
2018-04-17T19:58:19.649Z,0.00
2018-04-17T19:59:19.605Z,0.00
2018-04-17T20:00:19.564Z,0.00
2018-04-17T20:01:19.524Z,0.00
2018-04-17T20:02:19.478Z,0.00
2018-04-17T20:03:19.434Z,0.00
2018-04-17T20:04:19.392Z,0.00
2018-04-17T20:05:19.349Z,0.00
2018-04-17T20:06:19.307Z,0.00
2018-04-17T20:07:19.264Z,0.00
2018-04-17T20:08:19.223Z,0.00
2018-04-17T20:09:19.187Z,0.00
2018-04-17T20:10:19.136Z,0.00
2018-04-17T20:11:19.094Z,0.00
2018-04-17T20:12:19.050Z,0.00
2018-04-17T20:13:19.007Z,0.00
2018-04-17T20:14:18.964Z,0.00
2018-04-17T20:15:18.921Z,0.00
2018-04-17T20:16:18.878Z,0.00
2018-04-17T20:17:18.839Z,0.00
2018-04-17T20:18:18.792Z,0.00
2018-04-17T20:19:18.750Z,0.00
2018-04-17T20:20:18.706Z,0.00
2018-04-17T20:21:18.663Z,0.00
2018-04-17T20:22:18.622Z,0.00
2018-04-17T20:23:18.577Z,0.00
2018-04-17T20:24:18.534Z,0.00
2018-04-17T20:25:18.494Z,0.00
2018-04-17T20:26:18.449Z,0.00
2018-04-17T20:27:18.407Z,0.00
2018-04-17T20:28:18.362Z,0.00
2018-04-17T20:29:18.320Z,0.00
2018-04-17T20:30:18.277Z,0.00
2018-04-17T20:31:18.232Z,0.00
2018-04-17T20:32:18.191Z,0.00
2018-04-17T20:33:18.147Z,0.00
2018-04-17T20:34:18.104Z,0.00
2018-04-17T20:35:18.061Z,0.00
2018-04-17T20:36:18.018Z,0.00
2018-04-17T20:37:17.976Z,0.00
2018-04-17T20:38:17.933Z,0.00
2018-04-17T20:39:17.891Z,0.00
2018-04-17T20:40:17.848Z,0.00
2018-04-17T20:41:17.807Z,0.00
2018-04-17T20:42:17.804Z,0.00
2018-04-17T20:43:17.716Z,0.00
2018-04-17T20:44:17.673Z,0.00
2018-04-17T20:45:17.631Z,0.00
2018-04-17T20:46:17.588Z,0.00
2018-04-17T20:47:17.544Z,0.00
2018-04-17T20:48:17.501Z,0.00
2018-04-17T20:49:17.458Z,0.00
2018-04-17T20:50:17.415Z,0.00
2018-04-17T20:51:17.372Z,0.00
2018-04-17T20:52:17.329Z,0.00
2018-04-17T20:53:17.286Z,0.00
2018-04-17T20:54:17.243Z,0.00
2018-04-17T20:55:17.198Z,0.00
2018-04-17T20:56:17.167Z,0.00
2018-04-17T20:57:17.114Z,0.00
2018-04-17T20:58:17.070Z,0.00
2018-04-17T20:59:17.026Z,0.00
2018-04-17T21:00:16.983Z,0.00
2018-04-17T21:01:16.940Z,0.00
2018-04-17T21:02:16.901Z,0.00
2018-04-17T21:03:16.854Z,0.00
2018-04-17T21:04:16.810Z,0.00